• Join FlightAware (Why Join?)
  • Login
  • US Flag 
06:24PM EDT


 

Airport Tracker/Info


-or-


 

Live Flight TrackerFlight Track Log ✈ N7192Y ✈ 25-Apr-2013 ✈ KDAY - 2G9

Flight Track Log - Related Links

Times and Time Zones

All times are in EDT time to prevent confusion due to time zone crossing. See the N7192Y flight status page for this flight to view local times or setup timezone preferences in your user account.

Time Position Orientation Groundspeed Altitude Reporting Facility
EDT Latitude Longitude Course Direction KTS MPH feet Rate Location/Type
03:12PM 39.8967 -84.2142 205° Southwest 79 91 1,300  Level Indianapolis Center
03:12PM 39.8858 -84.2208 205° Southwest 85 98 1,800 720 Climbing Indianapolis Center
03:13PM 39.8531 -84.2111 167° South 136 157 2,400 660 Climbing Indianapolis Center
03:14PM 39.8314 -84.2011 160° South 127 146 2,900 780 Climbing Indianapolis Center
03:14PM 39.8175 -84.1819 133° Southeast 138 159 3,300 720 Climbing Indianapolis Center
03:15PM 39.8061 -84.1644 130° Southeast 132 152 3,700 780 Climbing Indianapolis Center
03:15PM 39.8064 -84.1369 89° East 143 165 4,100 540 Climbing Indianapolis Center
03:16PM 39.8108 -84.1125 77° East 139 160 4,300 600 Climbing Indianapolis Center
03:16PM 39.8142 -84.0892 79° East 144 166 4,700 660 Climbing Indianapolis Center
03:17PM 39.8172 -84.0597 82° East 145 167 5,000 240 Climbing Indianapolis Center
03:17PM 39.8186 -84.0325 86° East 158 182 5,000 60 Level Indianapolis Center
03:18PM 39.8208 -84.0006 85° East 153 176 5,100 60 Climbing Indianapolis Center
03:18PM 39.8236 -83.9681 84° East 173 199 5,100  Level Indianapolis Center
03:19PM 39.8258 -83.9364 85° East 167 192 5,100  Level Indianapolis Center
03:19PM 39.8289 -83.9008 84° East 178 205 5,100 -120 Level Indianapolis Center
03:20PM 39.8303 -83.8725 86° East 173 199 5,000  Descending Indianapolis Center
03:20PM 39.8314 -83.8386 88° East 177 204 5,100 60 Climbing Indianapolis Center
03:21PM 39.8336 -83.8081 85° East 175 201 5,100  Level Indianapolis Center
03:21PM 39.8342 -83.7736 89° East 175 201 5,100  Level Indianapolis Center
03:22PM 39.8378 -83.7322 84° East 178 205 5,100  Level Indianapolis Center
03:22PM 39.8392 -83.7092 86° East 181 208 5,100  Level Indianapolis Center
03:23PM 39.8428 -83.6672 84° East 178 205 5,100  Level Indianapolis Center
03:24PM 39.8461 -83.6025 86° East 179 206 5,100  Level Indianapolis Center
03:25PM 39.8472 -83.5689 88° East 180 207 5,100  Level Indianapolis Center
03:25PM 39.8497 -83.5386 84° East 177 204 5,100  Level Indianapolis Center
03:25PM 39.8511 -83.5178 85° East 178 205 5,100  Level Indianapolis Center
03:26PM 39.8553 -83.4706 83° East 177 204 5,100  Level Indianapolis Center
03:26PM 39.8558 -83.4503 88° East 174 200 5,100  Level Indianapolis Center
03:27PM 39.8589 -83.4072 85° East 174 200 5,100 -120 Level Indianapolis Center
03:27PM 39.8603 -83.3883 85° East 173 199 5,000  Descending Indianapolis Center
03:28PM 39.8558 -83.3444 98° East 174 200 5,100  Climbing Indianapolis Center
03:29PM 39.8472 -83.2828 100° East 171 197 5,100  Level Indianapolis Center
03:30PM 39.8403 -83.2014 96° East 176 203 5,100  Level Indianapolis Center
03:31PM 39.8367 -83.1556 96° East 174 200 5,100  Level Indianapolis Center
03:32PM 39.8306 -83.0825 96° East 173 199 5,100  Level Indianapolis Center
03:33PM 39.8239 -83.0119 97° East 171 197 5,100  Level Indianapolis Center
03:34PM 39.8197 -82.9581 96° East 172 198 5,100  Level Indianapolis Center
03:35PM 39.8294 -82.8961 78° East 172 198 5,100  Level Indianapolis Center
03:37PM 39.8367 -82.8233 83° East 179 206 5,100  Level Indianapolis Center
03:37PM 39.8389 -82.7681 87° East 174 200 5,100  Level Indianapolis Center
03:39PM 39.8450 -82.7036 83° East 176 203 5,100  Level Indianapolis Center
03:40PM 39.8494 -82.6294 86° East 171 197 5,100  Level Indianapolis Center
03:41PM 39.8539 -82.5686 85° East 172 198 5,100  Level Indianapolis Center
03:42PM 39.8578 -82.5056 85° East 173 199 5,100  Level Indianapolis Center
03:43PM 39.8639 -82.4414 83° East 175 201 5,100  Level Indianapolis Center
03:44PM 39.8658 -82.3792 88° East 172 198 5,100  Level Indianapolis Center
03:45PM 39.8706 -82.3172 84° East 171 197 5,100  Level Indianapolis Center
03:46PM 39.8744 -82.2531 85° East 176 203 5,100  Level Indianapolis Center
03:47PM 39.8800 -82.1789 84° East 175 201 5,100  Level Indianapolis Center
03:48PM 39.8839 -82.1172 85° East 172 198 5,100  Level Indianapolis Center
03:49PM 39.8881 -82.0550 85° East 171 197 5,100  Level Indianapolis Center
03:50PM 39.8931 -81.9914 84° East 175 201 5,100  Level Indianapolis Center
03:51PM 39.8958 -81.9292 87° East 172 198 5,100  Level Indianapolis Center
03:52PM 39.8989 -81.8683 86° East 168 193 5,100  Level Indianapolis Center
03:53PM 39.9036 -81.8064 84° East 170 196 5,100  Level Indianapolis Center
03:54PM 39.9078 -81.7358 86° East 167 192 5,100  Level Indianapolis Center
03:55PM 39.9111 -81.6739 86° East 168 193 5,100  Level Indianapolis Center
03:56PM 39.9147 -81.6119 86° East 169 194 5,100  Level Indianapolis Center
03:57PM 39.9186 -81.5494 85° East 171 197 5,100  Level Indianapolis Center
03:58PM 39.9225 -81.4875 85° East 170 196 5,100  Level Indianapolis Center
03:59PM 39.9253 -81.4283 86° East 164 189 5,100  Level Indianapolis Center
04:00PM 39.9300 -81.3600 85° East 167 192 5,100  Level Indianapolis Center
04:01PM 39.9342 -81.2989 85° East 168 193 5,100  Level Indianapolis Center
04:02PM 39.9364 -81.2394 87° East 167 192 5,100  Level Indianapolis Center
04:03PM 39.9408 -81.1817 84° East 164 189 5,100  Level Indianapolis Center
04:04PM 39.9444 -81.1236 85° East 162 186 5,100  Level Indianapolis Center
04:05PM 39.9492 -81.0894 80° East 160 184 5,100  Level Cleveland Center
04:06PM 39.9517 -81.0272 87° East 160 184 5,100  Level Cleveland Center
04:07PM 39.9561 -80.9675 84° East 160 184 5,100  Level Cleveland Center